x

South Santa Rosa Is. Ca (46069) Wave Buoy

10:50 - Sun 26th Jun 2016 All times are PDT. -7 hours from GMT.

  • Sig Wave height 6.6ft
  • Swell Direction
  • Peak Period 17s
  • Average Period 8s
  • Wind
    9mph
  • Sea Temp 61°f
  • Ar Temp 58°f
  • Sea Pressure 1012.9mb
  • South Santa Rosa Is. Ca
  • South Santa Rosa Is. Ca

More Historic Weather Station data

Upgrade to MSW Pro to gain access to the past 30 days of data for over 8000 Wavebouys and Weather Stations around the globe.

Join Pro

Comparision Forecast

View Surf forecast
   
Dom 06/26 10:50 6.5ft 17s 8s 9
mph
1012.9mb 61f 58f
9:50 6.5ft 8s 7s 7 9 mph 1013mb 60f 58f
8:50 6ft 17s 8s 11
mph
1012.9mb 61f 58f
7:50 6.5ft 17s 8s 7 11 mph 1012.5mb 62f 58f
6:50 7ft 17s 9s 9 11 mph 1011.8mb 62f 59f
5:50 7.5ft 9s 8s 11 13 mph 1011.6mb 62f 59f
4:50 7ft 17s 8s 11 13 mph 1011.3mb 62f 59f
3:50 7ft 15s 7s 11 13 mph 1011mb 60f 59f
2:50 8ft 17s 7s 16 18 mph 1011mb 60f 58f
12:50 8.5ft 19s 7s 22 27 mph 1011.3mb 61f 59f
Sáb 06/25 11:50 9ft 7s 7s 22 27 mph 1011.4mb 61f 59f
10:50 9.5ft 17s 7s 25 29 mph 1010.9mb 61f 59f
9:50 9ft 17s 7s 25 29 mph 1010.4mb 61f 60f
8:50 10ft 8s 7s 25 31 mph 1009.9mb 62f 60f
7:50 8ft 17s 7s 27 34 mph 1009.8mb 60f 59f
6:50 8.5ft 17s 7s 27 31 mph 1009.9mb 60f 59f
5:50 8ft 16s 7s 25 31 mph 1010mb 60f 59f
2:50 7ft 16s 7s 20 25 mph 1011.4mb 60f 59f
1:50 7ft 19s 7s 20 22 mph 1011.6mb 60f 58f
12:50 7ft 16s 7s 18 20 mph 1012mb 59f 58f
11:50 7.5ft 19s 7s 16 20 mph 1012.2mb 60f 58f
10:50 8ft 8s 8s 18 22 mph 1012.2mb 59f 57f
9:50 8.5ft 17s 8s 18 22 mph 1012.2mb 60f 57f
8:50 8ft 17s 8s 20 22 mph 1011.9mb 60f 57f
7:50 8ft 16s 7s 18 22 mph 1011.9mb 60f 57f
6:50 9ft 17s 8s 20 25 mph 1011.7mb 60f 57f
5:50 8.5ft 17s 8s 22 27 mph 1011.2mb 59f 57f
4:50 9ft 16s 7s 22 25 mph 1011mb 58f 57f
3:50 9ft 17s 7s 20 25 mph 1011.2mb 58f 57f
2:50 8ft 16s 7s 22 27 mph 1011.5mb 59f 57f
1:50 9.5ft 17s 7s 27 31 mph 1011.2mb 60f 58f
12:50 9ft 17s 7s 31 36 mph 1011.1mb 60f 58f
Sex 06/24 11:50 9ft 19s 7s 27 31 mph 1011.9mb 60f 59f
10:50 10ft 17s 7s 25 31 mph 1012.6mb 60f 59f
9:50 10ft 8s 7s 27 34 mph 1012.4mb 61f 59f
8:50 10ft 8s 7s 31 38 mph 1011.5mb 61f 59f
7:50 10.5ft 8s 7s 27 34 mph 1012mb 61f 60f
6:50 10ft 8s 7s 27 34 mph 1011.8mb 61f 60f
5:50 10ft 8s 7s 31 38 mph 1011.5mb 61f 60f
4:50 10ft 8s 6s 31 40 mph 1012.1mb 60f 60f
3:50 11ft 17s 6s 31 38 mph 1012.7mb 60f 60f
2:50 10.5ft 8s 6s 27 34 mph 1013.9mb 60f 59f
1:50 10ft 17s 6s 31 36 mph 1013.5mb 60f 58f
12:50 9.5ft 8s 7s 29 34 mph 1013.9mb 59f 57f
11:50 9ft 8s 6s 29 36 mph 1014.1mb 59f 57f
10:50 10ft 7s 7s 27 31 mph 1014.6mb 59f 56f
9:50 10ft 8s 7s 25 29 mph 1014.8mb 59f 56f
8:50 10ft 9s 7s 22 27 mph 1014.7mb 59f 57f
7:50 9.5ft 8s 7s 25 29 mph 1014.7mb 59f 58f
6:50 9.5ft 16s 7s 22 25 mph 1014.4mb 59f 58f
5:50 9.5ft 17s 7s 25 34 mph 1013.7mb 59f 58f
4:50 9.5ft 17s 7s 22 29 mph 1013.7mb 59f 58f
3:50 9.5ft 8s 7s 25 29 mph 1013.3mb 59f 59f
2:50 9.5ft 17s 7s 25 31 mph 1013.2mb 58f 59f
1:50 10ft 16s 7s 22 27 mph 1013.9mb 57f 59f
12:50 9ft 17s 6s 25 34 mph 1013.6mb 58f 60f
Qui 06/23 11:50 8ft 19s 6s 25 29 mph 1014.1mb 59f 60f
10:50 8.5ft 17s 6s 27 34 mph 1013.2mb 59f 60f
9:50 9ft 17s 7s 27 34 mph 1013.3mb 59f 60f
8:50 9ft 17s 6s 27 34 mph 1013mb 59f 60f
7:50 7.5ft 17s 6s 29 36 mph 1012.6mb 59f 60f
6:50 7ft 17s 7s 22 27 mph 1013mb 60f 61f
5:50 7.5ft 17s 7s 25 29 mph 1012.9mb 60f 60f
4:50 7ft 17s 8s 20 25 mph 1013.8mb 60f 60f
3:50 7ft 17s 8s 20 25 mph 1014.2mb 60f 59f
2:50 7ft 17s 8s 13 18 mph 1015mb 60f 59f
1:50 7ft 17s 8s 13 16 mph 1015.5mb 60f 57f
12:50 6.5ft 17s 8s 11 13 mph 1016mb 59f 55f
11:50 7ft 17s 8s 11 13 mph 1016.2mb 59f 56f
10:50 7.5ft 17s 8s 11 13 mph 1016mb 59f 56f
9:50 7.5ft 17s 8s 11
mph
1015.7mb 59f 56f
8:50 7ft 9s 8s 9
mph
1015.6mb 59f 56f
7:50 7ft 17s 8s 9 11 mph 1015.3mb 58f 56f
6:50 7ft 17s 8s 9 11 mph 1014.7mb 58f 56f
5:50 8ft 17s 8s 13 16 mph 1014.1mb 58f 56f
4:50 7.5ft 8s 7s 13 18 mph 1013.9mb 58f 56f
3:50 7.5ft 17s 7s 16 20 mph 1013.8mb 58f 56f
2:50 7ft 17s 6s 20 25 mph 1013.5mb 59f 56f
12:50 8ft 19s 6s 20 27 mph 1013.9mb 60f 57f
Qua 06/22 11:50 8ft 9s 6s 22 27 mph 1014mb 59f 56f
10:50 8.5ft 17s 6s 20 25 mph 1014.1mb 59f 56f
9:50 8ft 19s 6s 25 29 mph 1013.8mb 59f 56f
8:50 7.5ft 8s 6s 20 27 mph 1013.7mb 60f 56f
7:50 7ft 9s 7s 20 25 mph 1013.5mb 60f 57f